HP25SKT MPMG-MPMG
Flight info
| Callsign | HP25SKT |
|---|---|
| Flight time | 1h 29m |
| Altitude | 7500 |
| Route | MPSM DCT MPSA DCT MPPD |
| Aircraft | K100/L-SBDGRY/S |
Departure
| Time | 2026-04-26 17:13 |
|---|---|
| Airport | Marcos A. Gelabert International Airport (MPMG) |
Arrival
| Time | 2026-04-26 18:43 |
|---|---|
| Airport | Marcos A. Gelabert International Airport (MPMG) |
| Time | Latitude | Longitude | Altitude | Speed | Heading |
|---|---|---|---|---|---|
| 2026-04-26 17:13 | 8.84541 | -79.39671 | 6774 ft | 165 kts | 136° |
| 2026-04-26 17:13 | 8.83712 | -79.38867 | 7001 ft | 165 kts | 136° |
| 2026-04-26 17:13 | 8.82054 | -79.37255 | 7452 ft | 167 kts | 136° |
| 2026-04-26 17:14 | 8.81200 | -79.36424 | 7466 ft | 177 kts | 135° |
| 2026-04-26 17:14 | 8.79375 | -79.34650 | 7464 ft | 183 kts | 136° |
| 2026-04-26 17:14 | 8.78470 | -79.33771 | 7462 ft | 184 kts | 136° |
| 2026-04-26 17:15 | 8.76611 | -79.31966 | 7463 ft | 186 kts | 135° |
| 2026-04-26 17:15 | 8.75679 | -79.31061 | 7463 ft | 185 kts | 136° |
| 2026-04-26 17:15 | 8.74745 | -79.30154 | 7462 ft | 185 kts | 136° |
| 2026-04-26 17:16 | 8.73815 | -79.29252 | 7460 ft | 185 kts | 136° |
| 2026-04-26 17:16 | 8.72885 | -79.28349 | 7460 ft | 185 kts | 136° |
| 2026-04-26 17:16 | 8.71956 | -79.27447 | 7461 ft | 185 kts | 136° |
| 2026-04-26 17:16 | 8.71024 | -79.26544 | 7460 ft | 185 kts | 136° |
| 2026-04-26 17:17 | 8.70095 | -79.25642 | 7462 ft | 185 kts | 136° |
| 2026-04-26 17:17 | 8.69163 | -79.24737 | 7463 ft | 186 kts | 136° |
| 2026-04-26 17:17 | 8.68226 | -79.23828 | 7462 ft | 186 kts | 136° |
| 2026-04-26 17:17 | 8.67301 | -79.22930 | 7463 ft | 187 kts | 136° |
| 2026-04-26 17:18 | 8.66363 | -79.22019 | 7463 ft | 187 kts | 136° |
| 2026-04-26 17:18 | 8.65423 | -79.21108 | 7462 ft | 187 kts | 136° |
| 2026-04-26 17:18 | 8.64485 | -79.20198 | 7463 ft | 187 kts | 136° |
| 2026-04-26 17:18 | 8.63542 | -79.19283 | 7464 ft | 187 kts | 136° |
| 2026-04-26 17:19 | 8.61665 | -79.17463 | 7463 ft | 187 kts | 136° |
| 2026-04-26 17:19 | 8.60725 | -79.16550 | 7461 ft | 187 kts | 136° |
| 2026-04-26 17:19 | 8.59782 | -79.15636 | 7462 ft | 187 kts | 136° |
| 2026-04-26 17:20 | 8.58841 | -79.14724 | 7462 ft | 188 kts | 136° |
| 2026-04-26 17:20 | 8.58219 | -79.14120 | 7460 ft | 187 kts | 136° |
| 2026-04-26 17:20 | 8.56959 | -79.12898 | 7462 ft | 187 kts | 136° |
| 2026-04-26 17:20 | 8.56018 | -79.11985 | 7460 ft | 187 kts | 136° |
| 2026-04-26 17:21 | 8.55076 | -79.11072 | 7456 ft | 187 kts | 136° |
| 2026-04-26 17:21 | 8.54137 | -79.10162 | 7460 ft | 187 kts | 136° |
| 2026-04-26 17:21 | 8.53196 | -79.09249 | 7458 ft | 187 kts | 136° |
| 2026-04-26 17:21 | 8.52253 | -79.08335 | 7460 ft | 187 kts | 136° |
| 2026-04-26 17:22 | 8.51315 | -79.07426 | 7461 ft | 187 kts | 136° |
| 2026-04-26 17:22 | 8.50372 | -79.06513 | 7459 ft | 187 kts | 136° |
| 2026-04-26 17:22 | 8.49443 | -79.05612 | 7458 ft | 188 kts | 136° |
| 2026-04-26 17:22 | 8.48510 | -79.04708 | 7460 ft | 187 kts | 136° |
| 2026-04-26 17:23 | 8.47572 | -79.03798 | 7458 ft | 187 kts | 136° |
| 2026-04-26 17:23 | 8.46637 | -79.02893 | 7460 ft | 187 kts | 136° |
| 2026-04-26 17:23 | 8.45697 | -79.01983 | 7456 ft | 187 kts | 136° |
| 2026-04-26 17:23 | 8.44760 | -79.01075 | 7456 ft | 187 kts | 136° |
| 2026-04-26 17:24 | 8.43819 | -79.00163 | 7457 ft | 187 kts | 136° |
| 2026-04-26 17:24 | 8.42882 | -78.99255 | 7456 ft | 187 kts | 136° |
| 2026-04-26 17:24 | 8.41942 | -78.98345 | 7457 ft | 187 kts | 136° |
| 2026-04-26 17:24 | 8.41004 | -78.97437 | 7454 ft | 187 kts | 136° |
| 2026-04-26 17:25 | 8.40077 | -78.96539 | 7454 ft | 187 kts | 136° |
| 2026-04-26 17:25 | 8.39138 | -78.95630 | 7458 ft | 187 kts | 136° |
| 2026-04-26 17:25 | 8.38202 | -78.94723 | 7459 ft | 186 kts | 136° |
| 2026-04-26 17:25 | 8.37267 | -78.93818 | 7460 ft | 186 kts | 136° |
| 2026-04-26 17:26 | 8.36328 | -78.92909 | 7456 ft | 186 kts | 136° |
| 2026-04-26 17:26 | 8.35394 | -78.92005 | 7457 ft | 186 kts | 136° |
| 2026-04-26 17:26 | 8.34458 | -78.91099 | 7456 ft | 186 kts | 136° |
| 2026-04-26 17:26 | 8.33518 | -78.90189 | 7458 ft | 186 kts | 136° |
| 2026-04-26 17:27 | 8.32581 | -78.89281 | 7456 ft | 186 kts | 136° |
| 2026-04-26 17:27 | 8.31655 | -78.88386 | 7458 ft | 186 kts | 136° |
| 2026-04-26 17:27 | 8.30721 | -78.87481 | 7457 ft | 186 kts | 136° |
| 2026-04-26 17:27 | 8.29786 | -78.86577 | 7455 ft | 186 kts | 136° |
| 2026-04-26 17:28 | 8.28850 | -78.85671 | 7457 ft | 187 kts | 136° |
| 2026-04-26 17:28 | 8.27910 | -78.84762 | 7453 ft | 186 kts | 136° |
| 2026-04-26 17:28 | 8.26976 | -78.83858 | 7450 ft | 187 kts | 136° |
| 2026-04-26 17:28 | 8.26040 | -78.82952 | 7454 ft | 187 kts | 136° |
| 2026-04-26 17:29 | 8.25101 | -78.82044 | 7453 ft | 187 kts | 136° |
| 2026-04-26 17:29 | 8.24478 | -78.81442 | 7454 ft | 186 kts | 136° |
| 2026-04-26 17:29 | 8.23229 | -78.80233 | 7455 ft | 186 kts | 136° |
| 2026-04-26 17:29 | 8.22291 | -78.79326 | 7451 ft | 186 kts | 136° |
| 2026-04-26 17:30 | 8.21355 | -78.78421 | 7455 ft | 186 kts | 136° |
| 2026-04-26 17:30 | 8.20419 | -78.77516 | 7450 ft | 186 kts | 136° |
| 2026-04-26 17:30 | 8.19487 | -78.76614 | 7453 ft | 186 kts | 136° |
| 2026-04-26 17:30 | 8.18549 | -78.75707 | 7451 ft | 186 kts | 136° |
| 2026-04-26 17:31 | 8.17614 | -78.74804 | 7453 ft | 186 kts | 136° |
| 2026-04-26 17:31 | 8.16676 | -78.73897 | 7454 ft | 186 kts | 136° |
| 2026-04-26 17:31 | 8.15752 | -78.73004 | 7457 ft | 186 kts | 136° |
| 2026-04-26 17:31 | 8.14806 | -78.72090 | 7456 ft | 186 kts | 136° |
| 2026-04-26 17:32 | 8.13868 | -78.71182 | 7455 ft | 186 kts | 136° |
| 2026-04-26 17:32 | 8.12947 | -78.70292 | 7455 ft | 186 kts | 136° |
| 2026-04-26 17:32 | 8.12011 | -78.69389 | 7454 ft | 186 kts | 136° |
| 2026-04-26 17:32 | 8.11073 | -78.68481 | 7452 ft | 186 kts | 135° |
| 2026-04-26 17:33 | 8.10136 | -78.67576 | 7454 ft | 186 kts | 136° |
| 2026-04-26 17:33 | 8.09197 | -78.66668 | 7455 ft | 187 kts | 136° |
| 2026-04-26 17:33 | 8.08255 | -78.65758 | 7454 ft | 187 kts | 136° |
| 2026-04-26 17:34 | 8.06274 | -78.64072 | 7452 ft | 187 kts | 142° |
| 2026-04-26 17:34 | 8.05314 | -78.63199 | 7452 ft | 186 kts | 128° |
| 2026-04-26 17:34 | 8.04571 | -78.62146 | 7455 ft | 186 kts | 124° |
| 2026-04-26 17:34 | 8.03796 | -78.61102 | 7454 ft | 186 kts | 128° |
| 2026-04-26 17:35 | 8.02977 | -78.60084 | 7453 ft | 187 kts | 129° |
| 2026-04-26 17:35 | 8.02155 | -78.59066 | 7451 ft | 187 kts | 128° |
| 2026-04-26 17:35 | 8.01337 | -78.58046 | 7452 ft | 187 kts | 128° |
| 2026-04-26 17:35 | 8.00531 | -78.57039 | 7452 ft | 187 kts | 128° |
| 2026-04-26 17:36 | 7.99708 | -78.56012 | 7452 ft | 187 kts | 128° |
| 2026-04-26 17:36 | 7.98889 | -78.54989 | 7451 ft | 187 kts | 128° |
| 2026-04-26 17:36 | 7.98073 | -78.53970 | 7453 ft | 186 kts | 128° |
| 2026-04-26 17:36 | 7.97270 | -78.52969 | 7451 ft | 185 kts | 128° |
| 2026-04-26 17:37 | 7.96453 | -78.51950 | 7451 ft | 185 kts | 128° |
| 2026-04-26 17:37 | 7.95655 | -78.50954 | 7448 ft | 184 kts | 128° |
| 2026-04-26 17:37 | 7.94849 | -78.49949 | 7451 ft | 185 kts | 128° |
| 2026-04-26 17:38 | 7.93234 | -78.47935 | 7449 ft | 185 kts | 128° |
| 2026-04-26 17:38 | 7.92443 | -78.46947 | 7454 ft | 185 kts | 128° |
| 2026-04-26 17:38 | 7.91622 | -78.45922 | 7454 ft | 185 kts | 128° |
| 2026-04-26 17:38 | 7.90813 | -78.44913 | 7452 ft | 185 kts | 128° |
| 2026-04-26 17:39 | 7.90005 | -78.43905 | 7452 ft | 185 kts | 128° |
| 2026-04-26 17:39 | 7.89195 | -78.42897 | 7452 ft | 185 kts | 128° |
| 2026-04-26 17:39 | 7.88389 | -78.41892 | 7455 ft | 184 kts | 128° |
| 2026-04-26 17:39 | 7.87583 | -78.40886 | 7452 ft | 184 kts | 128° |
| 2026-04-26 17:40 | 7.86776 | -78.39881 | 7454 ft | 184 kts | 128° |
| 2026-04-26 17:40 | 7.86513 | -78.39553 | 7459 ft | 184 kts | 128° |
| 2026-04-26 17:40 | 7.85171 | -78.37879 | 7454 ft | 184 kts | 128° |
| 2026-04-26 17:40 | 7.84346 | -78.36850 | 7307 ft | 192 kts | 128° |
| 2026-04-26 17:41 | 7.83782 | -78.36145 | 7105 ft | 199 kts | 128° |
| 2026-04-26 17:41 | 7.82606 | -78.34677 | 6706 ft | 205 kts | 128° |
| 2026-04-26 17:41 | 7.81710 | -78.33561 | 6408 ft | 205 kts | 128° |
| 2026-04-26 17:41 | 7.80810 | -78.32442 | 6096 ft | 205 kts | 128° |
| 2026-04-26 17:42 | 7.79918 | -78.31332 | 5781 ft | 203 kts | 128° |
| 2026-04-26 17:42 | 7.79027 | -78.30222 | 5464 ft | 202 kts | 128° |
| 2026-04-26 17:42 | 7.78442 | -78.29494 | 5251 ft | 202 kts | 128° |
| 2026-04-26 17:42 | 7.77563 | -78.28398 | 4948 ft | 200 kts | 128° |
| 2026-04-26 17:43 | 7.76687 | -78.27312 | 4635 ft | 199 kts | 129° |
| 2026-04-26 17:43 | 7.75656 | -78.26389 | 4455 ft | 194 kts | 142° |
| 2026-04-26 17:43 | 7.74593 | -78.25600 | 4450 ft | 186 kts | 144° |
| 2026-04-26 17:43 | 7.73556 | -78.24852 | 4453 ft | 182 kts | 143° |
| 2026-04-26 17:44 | 7.72538 | -78.24098 | 4455 ft | 181 kts | 143° |
| 2026-04-26 17:44 | 7.71494 | -78.23328 | 4202 ft | 191 kts | 143° |
| 2026-04-26 17:44 | 7.70485 | -78.22435 | 3911 ft | 196 kts | 134° |
| 2026-04-26 17:44 | 7.69436 | -78.21545 | 3626 ft | 198 kts | 144° |
| 2026-04-26 17:45 | 7.68308 | -78.20756 | 3340 ft | 197 kts | 144° |
| 2026-04-26 17:45 | 7.67283 | -78.19845 | 3053 ft | 196 kts | 133° |
| 2026-04-26 17:45 | 7.66320 | -78.18875 | 2762 ft | 195 kts | 139° |
| 2026-04-26 17:45 | 7.65266 | -78.18033 | 2488 ft | 189 kts | 143° |
| 2026-04-26 17:46 | 7.64246 | -78.17255 | 2215 ft | 181 kts | 143° |
| 2026-04-26 17:46 | 7.63228 | -78.16574 | 1928 ft | 172 kts | 160° |
| 2026-04-26 17:46 | 7.62061 | -78.16532 | 1551 ft | 168 kts | 192° |
| 2026-04-26 17:46 | 7.61071 | -78.16978 | 984 ft | 149 kts | 213° |
| 2026-04-26 17:47 | 7.60115 | -78.17461 | 500 ft | 155 kts | 202° |
| 2026-04-26 17:47 | 7.59441 | -78.17715 | 238 ft | 151 kts | 203° |
| 2026-04-26 17:47 | 7.58313 | -78.18144 | 304 ft | 105 kts | 201° |
| 2026-04-26 17:47 | 7.57612 | -78.18450 | 314 ft | 105 kts | 208° |
| 2026-04-26 17:48 | 7.57294 | -78.18238 | 407 ft | 89 kts | 48° |
| 2026-04-26 17:48 | 7.57793 | -78.18299 | 228 ft | 87 kts | 359° |
| 2026-04-26 17:48 | 7.58314 | -78.18145 | 64 ft | 89 kts | 15° |
| 2026-04-26 17:48 | 7.58851 | -78.17955 | 10 ft | 62 kts | 20° |
| 2026-04-26 17:49 | 7.58976 | -78.17905 | 12 ft | 10 kts | 27° |
| 2026-04-26 17:49 | 7.59015 | -78.17889 | 9 ft | 1 kts | 232° |
| 2026-04-26 17:49 | 7.58946 | -78.17920 | 5 ft | 24 kts | 199° |
| 2026-04-26 17:49 | 7.58739 | -78.17996 | 12 ft | 35 kts | 199° |
| 2026-04-26 17:50 | 7.58509 | -78.18076 | 14 ft | 28 kts | 200° |
| 2026-04-26 17:50 | 7.58458 | -78.18107 | 14 ft | 4 kts | 331° |
| 2026-04-26 17:50 | 7.58467 | -78.18106 | 18 ft | 0 kts | 93° |
| 2026-04-26 17:54 | 7.58467 | -78.18101 | 13 ft | 4 kts | 83° |
| 2026-04-26 17:54 | 7.58567 | -78.18054 | 11 ft | 24 kts | 17° |
| 2026-04-26 17:54 | 7.58750 | -78.17988 | 6 ft | 32 kts | 19° |
| 2026-04-26 17:55 | 7.59000 | -78.17901 | 8 ft | 35 kts | 19° |
| 2026-04-26 17:55 | 7.59031 | -78.17890 | 7 ft | 2 kts | 95° |
| 2026-04-26 17:55 | 7.59022 | -78.17893 | 8 ft | 1 kts | 199° |
| 2026-04-26 17:55 | 7.59015 | -78.17896 | 8 ft | 12 kts | 200° |
| 2026-04-26 17:56 | 7.58740 | -78.17995 | 6 ft | 67 kts | 199° |
| 2026-04-26 17:56 | 7.57791 | -78.18513 | 477 ft | 84 kts | 224° |
| 2026-04-26 17:57 | 7.57686 | -78.18610 | 563 ft | 84 kts | 229° |
| 2026-04-26 17:59 | 7.57638 | -78.18666 | 612 ft | 82 kts | 231° |
| 2026-04-26 17:59 | 7.57271 | -78.19135 | 762 ft | 100 kts | 211° |
| 2026-04-26 18:00 | 7.56743 | -78.19654 | 742 ft | 118 kts | 256° |
| 2026-04-26 18:00 | 7.57081 | -78.20314 | 977 ft | 104 kts | 335° |
| 2026-04-26 18:00 | 7.57867 | -78.20465 | 897 ft | 127 kts | 341° |
| 2026-04-26 18:00 | 7.58605 | -78.21009 | 807 ft | 136 kts | 314° |
| 2026-04-26 18:01 | 7.59261 | -78.21650 | 1000 ft | 128 kts | 315° |
| 2026-04-26 18:01 | 7.59910 | -78.22266 | 1125 ft | 136 kts | 315° |
| 2026-04-26 18:01 | 7.60629 | -78.22963 | 1247 ft | 150 kts | 314° |
| 2026-04-26 18:01 | 7.61397 | -78.23712 | 1378 ft | 157 kts | 315° |
| 2026-04-26 18:02 | 7.62195 | -78.24485 | 1518 ft | 161 kts | 315° |
| 2026-04-26 18:02 | 7.62736 | -78.25006 | 1612 ft | 163 kts | 315° |
| 2026-04-26 18:02 | 7.63836 | -78.26064 | 1805 ft | 164 kts | 315° |
| 2026-04-26 18:02 | 7.64662 | -78.26862 | 1948 ft | 164 kts | 315° |
| 2026-04-26 18:03 | 7.65489 | -78.27655 | 2090 ft | 164 kts | 316° |
| 2026-04-26 18:03 | 7.66317 | -78.28447 | 2237 ft | 164 kts | 316° |
| 2026-04-26 18:03 | 7.67145 | -78.29245 | 2387 ft | 164 kts | 315° |
| 2026-04-26 18:03 | 7.67970 | -78.30045 | 2519 ft | 164 kts | 316° |
| 2026-04-26 18:04 | 7.68798 | -78.30843 | 2674 ft | 165 kts | 316° |
| 2026-04-26 18:04 | 7.69618 | -78.31636 | 2812 ft | 165 kts | 316° |
| 2026-04-26 18:04 | 7.70448 | -78.32437 | 2959 ft | 166 kts | 316° |
| 2026-04-26 18:05 | 7.72118 | -78.34052 | 3250 ft | 166 kts | 316° |
| 2026-04-26 18:05 | 7.72955 | -78.34861 | 3401 ft | 167 kts | 317° |
| 2026-04-26 18:05 | 7.73795 | -78.35671 | 3540 ft | 167 kts | 317° |
| 2026-04-26 18:05 | 7.74634 | -78.36481 | 3685 ft | 168 kts | 317° |
| 2026-04-26 18:06 | 7.75480 | -78.37298 | 3830 ft | 168 kts | 317° |
| 2026-04-26 18:06 | 7.76317 | -78.38108 | 3974 ft | 168 kts | 317° |
| 2026-04-26 18:06 | 7.77171 | -78.38932 | 4121 ft | 168 kts | 317° |
| 2026-04-26 18:06 | 7.78015 | -78.39750 | 4268 ft | 168 kts | 317° |
| 2026-04-26 18:07 | 7.78853 | -78.40558 | 4414 ft | 168 kts | 317° |
| 2026-04-26 18:07 | 7.79700 | -78.41376 | 4558 ft | 169 kts | 317° |
| 2026-04-26 18:07 | 7.80548 | -78.42197 | 4707 ft | 169 kts | 317° |
| 2026-04-26 18:07 | 7.81109 | -78.42739 | 4801 ft | 169 kts | 317° |
| 2026-04-26 18:08 | 7.82245 | -78.43836 | 4991 ft | 169 kts | 317° |
| 2026-04-26 18:08 | 7.83093 | -78.44657 | 5136 ft | 169 kts | 317° |
| 2026-04-26 18:08 | 7.83943 | -78.45478 | 5277 ft | 169 kts | 317° |
| 2026-04-26 18:08 | 7.84789 | -78.46296 | 5424 ft | 169 kts | 317° |
| 2026-04-26 18:09 | 7.85638 | -78.47116 | 5569 ft | 169 kts | 317° |
| 2026-04-26 18:09 | 7.86483 | -78.47934 | 5712 ft | 169 kts | 317° |
| 2026-04-26 18:09 | 7.87322 | -78.48745 | 5856 ft | 168 kts | 317° |
| 2026-04-26 18:09 | 7.88168 | -78.49564 | 6007 ft | 168 kts | 317° |
| 2026-04-26 18:10 | 7.89012 | -78.50380 | 6151 ft | 168 kts | 317° |
| 2026-04-26 18:10 | 7.89858 | -78.51197 | 6300 ft | 168 kts | 317° |
| 2026-04-26 18:10 | 7.90701 | -78.52013 | 6437 ft | 168 kts | 317° |
| 2026-04-26 18:10 | 7.91547 | -78.52832 | 6575 ft | 168 kts | 317° |
| 2026-04-26 18:11 | 7.92389 | -78.53646 | 6718 ft | 168 kts | 317° |
| 2026-04-26 18:11 | 7.93222 | -78.54451 | 6858 ft | 168 kts | 317° |
| 2026-04-26 18:11 | 7.94075 | -78.55276 | 6998 ft | 168 kts | 317° |
| 2026-04-26 18:11 | 7.94908 | -78.56082 | 7135 ft | 167 kts | 317° |
| 2026-04-26 18:12 | 7.95745 | -78.56892 | 7279 ft | 167 kts | 317° |
| 2026-04-26 18:12 | 7.96586 | -78.57706 | 7413 ft | 167 kts | 317° |
| 2026-04-26 18:12 | 7.97441 | -78.58534 | 7423 ft | 174 kts | 317° |
| 2026-04-26 18:12 | 7.98329 | -78.59394 | 7419 ft | 179 kts | 317° |
| 2026-04-26 18:13 | 7.99238 | -78.60275 | 7421 ft | 181 kts | 317° |
| 2026-04-26 18:13 | 8.00151 | -78.61159 | 7423 ft | 183 kts | 317° |
| 2026-04-26 18:13 | 8.01060 | -78.62039 | 7421 ft | 184 kts | 317° |
| 2026-04-26 18:13 | 8.01683 | -78.62641 | 7421 ft | 184 kts | 317° |
| 2026-04-26 18:14 | 8.02924 | -78.63841 | 7426 ft | 185 kts | 317° |
| 2026-04-26 18:14 | 8.03852 | -78.64740 | 7421 ft | 185 kts | 317° |
| 2026-04-26 18:14 | 8.04763 | -78.65622 | 7430 ft | 182 kts | 317° |
| 2026-04-26 18:14 | 8.05654 | -78.66484 | 7438 ft | 174 kts | 317° |
| 2026-04-26 18:15 | 8.06522 | -78.67323 | 7437 ft | 171 kts | 317° |
| 2026-04-26 18:15 | 8.07378 | -78.68150 | 7438 ft | 170 kts | 317° |
| 2026-04-26 18:15 | 8.08226 | -78.68972 | 7436 ft | 169 kts | 317° |
| 2026-04-26 18:15 | 8.09074 | -78.69794 | 7436 ft | 168 kts | 317° |
| 2026-04-26 18:16 | 8.09921 | -78.70614 | 7438 ft | 168 kts | 317° |
| 2026-04-26 18:16 | 8.11636 | -78.72277 | 7425 ft | 174 kts | 317° |
| 2026-04-26 18:16 | 8.12522 | -78.73136 | 7414 ft | 177 kts | 317° |
| 2026-04-26 18:17 | 8.13388 | -78.73975 | 7425 ft | 173 kts | 317° |
| 2026-04-26 18:17 | 8.14249 | -78.74808 | 7432 ft | 170 kts | 317° |
| 2026-04-26 18:17 | 8.15100 | -78.75632 | 7436 ft | 169 kts | 317° |
| 2026-04-26 18:17 | 8.15957 | -78.76461 | 7423 ft | 174 kts | 317° |
| 2026-04-26 18:18 | 8.16842 | -78.77321 | 7416 ft | 179 kts | 317° |
| 2026-04-26 18:18 | 8.17747 | -78.78200 | 7415 ft | 182 kts | 317° |
| 2026-04-26 18:18 | 8.18649 | -78.79073 | 7433 ft | 176 kts | 317° |
| 2026-04-26 18:18 | 8.19521 | -78.79918 | 7433 ft | 172 kts | 317° |
| 2026-04-26 18:19 | 8.20381 | -78.80750 | 7433 ft | 170 kts | 317° |
| 2026-04-26 18:19 | 8.21237 | -78.81578 | 7439 ft | 170 kts | 317° |
| 2026-04-26 18:19 | 8.22086 | -78.82402 | 7439 ft | 169 kts | 317° |
| 2026-04-26 18:19 | 8.22928 | -78.83219 | 7439 ft | 168 kts | 317° |
| 2026-04-26 18:20 | 8.23775 | -78.84040 | 7431 ft | 169 kts | 317° |
| 2026-04-26 18:20 | 8.24634 | -78.84874 | 7413 ft | 173 kts | 317° |
| 2026-04-26 18:20 | 8.25509 | -78.85723 | 7415 ft | 175 kts | 317° |
| 2026-04-26 18:20 | 8.25795 | -78.86001 | 7415 ft | 175 kts | 317° |
| 2026-04-26 18:21 | 8.27260 | -78.87422 | 7421 ft | 176 kts | 317° |
| 2026-04-26 18:21 | 8.28144 | -78.88278 | 7418 ft | 176 kts | 317° |
| 2026-04-26 18:21 | 8.29027 | -78.89135 | 7415 ft | 176 kts | 317° |
| 2026-04-26 18:21 | 8.29909 | -78.89989 | 7415 ft | 176 kts | 317° |
| 2026-04-26 18:22 | 8.30793 | -78.90847 | 7418 ft | 176 kts | 317° |
| 2026-04-26 18:22 | 8.31674 | -78.91702 | 7417 ft | 176 kts | 317° |
| 2026-04-26 18:22 | 8.32556 | -78.92557 | 7422 ft | 176 kts | 317° |
| 2026-04-26 18:22 | 8.33436 | -78.93411 | 7425 ft | 176 kts | 317° |
| 2026-04-26 18:23 | 8.34319 | -78.94266 | 7421 ft | 176 kts | 317° |
| 2026-04-26 18:23 | 8.35202 | -78.95125 | 7419 ft | 176 kts | 317° |
| 2026-04-26 18:23 | 8.36085 | -78.95980 | 7423 ft | 176 kts | 317° |
| 2026-04-26 18:23 | 8.36969 | -78.96839 | 7424 ft | 176 kts | 317° |
| 2026-04-26 18:24 | 8.37848 | -78.97693 | 7426 ft | 176 kts | 317° |
| 2026-04-26 18:24 | 8.38720 | -78.98538 | 7419 ft | 176 kts | 317° |
| 2026-04-26 18:24 | 8.39605 | -78.99397 | 7422 ft | 176 kts | 317° |
| 2026-04-26 18:24 | 8.40475 | -79.00242 | 7428 ft | 176 kts | 317° |
| 2026-04-26 18:25 | 8.41356 | -79.01097 | 7422 ft | 175 kts | 317° |
| 2026-04-26 18:25 | 8.42236 | -79.01951 | 7425 ft | 175 kts | 317° |
| 2026-04-26 18:25 | 8.43117 | -79.02806 | 7423 ft | 175 kts | 317° |
| 2026-04-26 18:25 | 8.43996 | -79.03660 | 7423 ft | 175 kts | 317° |
| 2026-04-26 18:26 | 8.44877 | -79.04515 | 7423 ft | 175 kts | 317° |
| 2026-04-26 18:26 | 8.45759 | -79.05372 | 7427 ft | 175 kts | 317° |
| 2026-04-26 18:26 | 8.46636 | -79.06224 | 7425 ft | 175 kts | 317° |
| 2026-04-26 18:26 | 8.47501 | -79.07064 | 7429 ft | 175 kts | 317° |
| 2026-04-26 18:27 | 8.48379 | -79.07916 | 7428 ft | 175 kts | 317° |
| 2026-04-26 18:27 | 8.49260 | -79.08772 | 7426 ft | 175 kts | 317° |
| 2026-04-26 18:27 | 8.50140 | -79.09627 | 7424 ft | 175 kts | 317° |
| 2026-04-26 18:27 | 8.50731 | -79.10201 | 7424 ft | 175 kts | 317° |
| 2026-04-26 18:28 | 8.51613 | -79.11058 | 7429 ft | 176 kts | 317° |
| 2026-04-26 18:28 | 8.51930 | -79.11366 | 7430 ft | 176 kts | 317° |
| 2026-04-26 18:28 | 8.52801 | -79.12211 | 7430 ft | 176 kts | 317° |
| 2026-04-26 18:28 | 8.53684 | -79.13069 | 7432 ft | 176 kts | 317° |
| 2026-04-26 18:29 | 8.54562 | -79.13924 | 7429 ft | 175 kts | 317° |
| 2026-04-26 18:29 | 8.55444 | -79.14781 | 7430 ft | 176 kts | 317° |
| 2026-04-26 18:29 | 8.56326 | -79.15637 | 7429 ft | 176 kts | 317° |
| 2026-04-26 18:29 | 8.57204 | -79.16490 | 7428 ft | 175 kts | 317° |
| 2026-04-26 18:30 | 8.58080 | -79.17351 | 7428 ft | 175 kts | 315° |
| 2026-04-26 18:30 | 8.58832 | -79.18314 | 7435 ft | 175 kts | 307° |
| 2026-04-26 18:30 | 8.59556 | -79.19305 | 7431 ft | 175 kts | 309° |
| 2026-04-26 18:30 | 8.60310 | -79.20282 | 7434 ft | 175 kts | 309° |
| 2026-04-26 18:31 | 8.61058 | -79.21238 | 7435 ft | 175 kts | 309° |
| 2026-04-26 18:31 | 8.61810 | -79.22204 | 7432 ft | 175 kts | 309° |
| 2026-04-26 18:31 | 8.62565 | -79.23176 | 7433 ft | 175 kts | 309° |
| 2026-04-26 18:31 | 8.63318 | -79.24142 | 7435 ft | 175 kts | 309° |
| 2026-04-26 18:32 | 8.64073 | -79.25112 | 7431 ft | 175 kts | 309° |
| 2026-04-26 18:32 | 8.64825 | -79.26079 | 7435 ft | 175 kts | 309° |
| 2026-04-26 18:32 | 8.65580 | -79.27048 | 7435 ft | 175 kts | 310° |
| 2026-04-26 18:32 | 8.66334 | -79.28018 | 7435 ft | 175 kts | 309° |
| 2026-04-26 18:33 | 8.67090 | -79.28988 | 7435 ft | 175 kts | 310° |
| 2026-04-26 18:33 | 8.67845 | -79.29959 | 7432 ft | 175 kts | 310° |
| 2026-04-26 18:33 | 8.68598 | -79.30924 | 7434 ft | 175 kts | 310° |
| 2026-04-26 18:33 | 8.69343 | -79.31880 | 7432 ft | 175 kts | 310° |
| 2026-04-26 18:34 | 8.70099 | -79.32852 | 7438 ft | 176 kts | 310° |
| 2026-04-26 18:34 | 8.70850 | -79.33819 | 7434 ft | 176 kts | 310° |
| 2026-04-26 18:34 | 8.71606 | -79.34791 | 7431 ft | 176 kts | 310° |
| 2026-04-26 18:34 | 8.72182 | -79.35533 | 7434 ft | 175 kts | 309° |
| 2026-04-26 18:35 | 8.72888 | -79.36439 | 7433 ft | 175 kts | 309° |
| 2026-04-26 18:35 | 8.73398 | -79.37096 | 7432 ft | 175 kts | 310° |
| 2026-04-26 18:35 | 8.74150 | -79.38062 | 7434 ft | 175 kts | 310° |
| 2026-04-26 18:35 | 8.74904 | -79.39031 | 7425 ft | 175 kts | 310° |
| 2026-04-26 18:36 | 8.75657 | -79.39998 | 7428 ft | 175 kts | 310° |
| 2026-04-26 18:36 | 8.76389 | -79.40939 | 7429 ft | 175 kts | 310° |
| 2026-04-26 18:36 | 8.77143 | -79.41912 | 7425 ft | 175 kts | 310° |
| 2026-04-26 18:36 | 8.77896 | -79.42879 | 7424 ft | 175 kts | 310° |
| 2026-04-26 18:37 | 8.78641 | -79.43837 | 7430 ft | 175 kts | 310° |
| 2026-04-26 18:37 | 8.79390 | -79.44799 | 7422 ft | 175 kts | 310° |
| 2026-04-26 18:37 | 8.80153 | -79.45782 | 7419 ft | 174 kts | 310° |
| 2026-04-26 18:37 | 8.80889 | -79.46731 | 7423 ft | 174 kts | 310° |
| 2026-04-26 18:38 | 8.81639 | -79.47695 | 7418 ft | 174 kts | 310° |
| 2026-04-26 18:38 | 8.82387 | -79.48659 | 7418 ft | 174 kts | 309° |
| 2026-04-26 18:38 | 8.83137 | -79.49625 | 7415 ft | 175 kts | 310° |
| 2026-04-26 18:38 | 8.83887 | -79.50587 | 7414 ft | 175 kts | 310° |
| 2026-04-26 18:39 | 8.84640 | -79.51558 | 7412 ft | 174 kts | 310° |
| 2026-04-26 18:39 | 8.85387 | -79.52519 | 7414 ft | 174 kts | 310° |
| 2026-04-26 18:39 | 8.86125 | -79.53468 | 7409 ft | 167 kts | 309° |
| 2026-04-26 18:39 | 8.86833 | -79.54381 | 7270 ft | 167 kts | 310° |
| 2026-04-26 18:40 | 8.87583 | -79.55323 | 6813 ft | 178 kts | 315° |
| 2026-04-26 18:40 | 8.88530 | -79.55981 | 6076 ft | 157 kts | 338° |
| 2026-04-26 18:40 | 8.89558 | -79.56236 | 5149 ft | 151 kts | 355° |
| 2026-04-26 18:40 | 8.90599 | -79.56175 | 4202 ft | 149 kts | 7° |
| 2026-04-26 18:41 | 8.91632 | -79.56064 | 3283 ft | 150 kts | 5° |
| 2026-04-26 18:41 | 8.92679 | -79.55971 | 2351 ft | 152 kts | 5° |
| 2026-04-26 18:41 | 8.93727 | -79.55878 | 1448 ft | 146 kts | 6° |
| 2026-04-26 18:41 | 8.94529 | -79.55816 | 925 ft | 122 kts | 6° |
| 2026-04-26 18:42 | 8.95348 | -79.55757 | 462 ft | 110 kts | 6° |
| 2026-04-26 18:42 | 8.96060 | -79.55684 | 241 ft | 100 kts | 6° |
| 2026-04-26 18:42 | 8.96635 | -79.55624 | 61 ft | 91 kts | 6° |
| 2026-04-26 18:42 | 8.97181 | -79.55570 | 31 ft | 52 kts | 6° |
| 2026-04-26 18:43 | 8.97329 | -79.55582 | 31 ft | 17 kts | 313° |
| 2026-04-26 18:43 | 8.97300 | -79.55653 | 31 ft | 12 kts | 187° |
| 2026-04-26 18:43 | 8.97160 | -79.55668 | 32 ft | 27 kts | 184° |
| 2026-04-26 18:43 | 8.96934 | -79.55686 | 30 ft | 39 kts | 185° |
| 2026-04-26 18:44 | 8.96713 | -79.55705 | 30 ft | 28 kts | 184° |
| 2026-04-26 18:44 | 8.96692 | -79.55707 | 30 ft | 0 kts | 209° |
| 2026-04-26 18:44 | 8.96691 | -79.55710 | 30 ft | 1 kts | 243° |
| 2026-04-26 18:44 | 8.96682 | -79.55725 | 30 ft | 1 kts | 216° |
| 2026-04-26 18:45 | 8.96679 | -79.55729 | 30 ft | 0 kts | 269° |
| 2026-04-26 18:45 | 8.96679 | -79.55730 | 30 ft | 0 kts | 273° |